Time;durP1;ratioP1;P1;durP2;ratioP2;P2;SDS_P1;SDS_P2;PMS_P1;PMS_P2;Temp;Humidity;BMP_temperature;BMP_pressure;BME280_temperature;BME280_humidity;BME280_pressure;Samples;Min_cycle;Max_cycle;Signal;HPM_P1;HPM_P2
2022/04/06 00:01:30;;;;;;;7.00;5.50;;;;;;;4.85;69.82;98971.42;84576;1334;22837;-79
2022/04/06 00:03:43;;;;;;;12.40;6.20;;;;;;;4.87;69.77;98967.20;84588;1334;22564;-78
2022/04/06 00:05:53;;;;;;;8.50;5.30;;;;;;;4.90;70.24;98965.04;84586;1325;23123;-76
2022/04/06 00:08:05;;;;;;;10.60;5.60;;;;;;;4.94;70.55;98964.04;84570;1333;23975;-77
2022/04/06 00:10:15;;;;;;;9.30;6.50;;;;;;;4.95;71.30;98960.20;84577;1335;25993;-78
2022/04/06 00:12:26;;;;;;;9.70;6.40;;;;;;;4.97;71.39;98964.61;84574;1334;25509;-79
2022/04/06 00:14:36;;;;;;;7.80;6.20;;;;;;;5.00;71.08;98966.73;84588;1332;22741;-78
2022/04/06 00:16:48;;;;;;;7.20;6.30;;;;;;;5.04;71.28;98963.66;84586;1325;22590;-76
2022/04/06 00:18:58;;;;;;;12.30;7.20;;;;;;;5.05;71.16;98965.31;84616;1331;22595;-76
2022/04/06 00:21:08;;;;;;;10.20;6.30;;;;;;;5.07;71.19;98968.19;84583;1332;22816;-78
2022/04/06 00:23:21;;;;;;;10.40;7.00;;;;;;;5.07;70.94;98970.06;84579;1331;22614;-80
2022/04/06 00:25:32;;;;;;;9.80;5.70;;;;;;;5.10;71.23;98972.23;84510;1333;22609;-78
2022/04/06 00:27:42;;;;;;;8.60;6.50;;;;;;;5.13;71.29;98973.66;84572;1335;22865;-79
2022/04/06 00:29:54;;;;;;;;;;;;;;;5.16;71.36;98974.58;84616;1333;24281;-79
2022/04/06 00:32:08;;;;;;;9.30;6.40;;;;;;;5.16;71.51;98970.94;84453;1332;25462;-80
2022/04/06 00:34:18;;;;;;;8.00;6.70;;;;;;;5.17;71.94;98966.92;84503;1332;22897;-79
2022/04/06 00:36:27;;;;;;;8.80;7.60;;;;;;;5.17;72.42;98966.59;84617;1324;22590;-79
2022/04/06 00:38:36;;;;;;;10.40;7.90;;;;;;;5.17;72.01;98968.15;84601;1335;22585;-79
2022/04/06 00:40:45;;;;;;;10.90;8.00;;;;;;;5.18;72.25;98965.86;84585;1334;22613;-76
2022/04/06 00:42:55;;;;;;;9.00;7.60;;;;;;;5.18;72.40;98968.29;84593;1330;24276;-77
2022/04/06 00:45:04;;;;;;;10.90;7.50;;;;;;;5.20;72.60;98968.40;84581;1331;22539;-78
2022/04/06 00:47:14;;;;;;;8.80;6.60;;;;;;;5.22;73.38;98967.28;84581;1334;24159;-78
2022/04/06 00:49:23;;;;;;;9.20;7.30;;;;;;;5.24;72.84;98965.14;84597;1332;22569;-79
2022/04/06 00:51:33;;;;;;;9.40;7.30;;;;;;;5.26;73.16;98961.56;84572;1334;22610;-76
2022/04/06 00:53:42;;;;;;;8.30;7.40;;;;;;;5.28;73.39;98953.75;84478;1336;23783;-77
2022/04/06 00:55:52;;;;;;;10.70;8.40;;;;;;;5.28;72.93;98952.86;84593;1333;25298;-76
2022/04/06 00:58:01;;;;;;;9.00;8.10;;;;;;;5.29;73.01;98953.53;84572;1334;22651;-76
2022/04/06 01:00:16;;;;;;;12.30;7.80;;;;;;;5.28;73.05;98952.70;83175;1335;1003423;-78
2022/04/06 01:02:25;;;;;;;14.70;8.60;;;;;;;5.28;73.22;98955.12;84590;1334;24266;-78
2022/04/06 01:04:34;;;;;;;12.90;8.50;;;;;;;5.28;73.40;98951.85;84494;1333;22619;-78
2022/04/06 01:06:44;;;;;;;10.70;6.80;;;;;;;5.28;73.58;98950.63;84554;1334;24004;-80
2022/04/06 01:08:54;;;;;;;11.80;7.70;;;;;;;5.29;73.66;98950.41;84469;1336;22604;-80
2022/04/06 01:11:06;;;;;;;12.00;7.80;;;;;;;5.32;73.40;98955.30;84534;1334;22597;-79
2022/04/06 01:13:19;;;;;;;11.30;8.70;;;;;;;5.33;73.50;98956.82;84475;1336;23845;-79
2022/04/06 01:15:29;;;;;;;10.80;7.60;;;;;;;5.35;73.86;98958.29;84488;1336;25438;-76
2022/04/06 01:17:37;;;;;;;;;;;;;;;5.36;73.79;98961.35;84446;1333;23852;-76
2022/04/06 01:19:51;;;;;;;10.70;8.40;;;;;;;5.36;74.03;98963.27;83045;1335;1003100;-77
2022/04/06 01:22:04;;;;;;;11.30;8.70;;;;;;;5.37;74.02;98965.66;84470;1334;22648;-80
2022/04/06 01:24:13;;;;;;;9.80;7.90;;;;;;;5.36;73.89;98959.29;84430;1335;22586;-79
2022/04/06 01:26:23;;;;;;;11.20;9.00;;;;;;;5.36;73.77;98959.80;84453;1337;22761;-77
2022/04/06 01:28:33;;;;;;;9.70;7.50;;;;;;;5.37;74.04;98971.16;84520;1333;22646;-76
2022/04/06 01:30:42;;;;;;;11.40;8.00;;;;;;;5.38;74.19;98970.11;84376;1335;22610;-78
2022/04/06 01:32:52;;;;;;;11.70;8.10;;;;;;;5.36;74.00;98965.69;84432;1337;22608;-78
2022/04/06 01:35:03;;;;;;;;;;;;;;;5.35;74.22;98959.85;84456;1334;22576;-78
2022/04/06 01:37:13;;;;;;;9.40;7.70;;;;;;;5.34;74.28;98973.54;84439;1337;22600;-78
2022/04/06 01:39:23;;;;;;;13.10;8.70;;;;;;;5.35;74.49;98966.27;84463;1334;22608;-79
2022/04/06 01:41:37;;;;;;;11.90;8.90;;;;;;;5.33;74.37;98970.80;84518;1336;25332;-77
2022/04/06 01:43:47;;;;;;;14.80;10.30;;;;;;;5.31;74.48;98965.02;84485;1332;23935;-78
2022/04/06 01:45:56;;;;;;;14.10;10.10;;;;;;;5.28;74.47;98966.87;84490;1333;24281;-81
2022/04/06 01:48:06;;;;;;;11.20;9.20;;;;;;;5.28;74.34;98963.94;84502;1329;22586;-79
2022/04/06 01:52:51;;;;;;;11.40;9.80;;;;;;;5.31;75.00;98953.77;84466;1336;24273;-79
2022/04/06 01:55:01;;;;;;;10.80;8.50;;;;;;;5.32;74.90;98948.72;84429;1334;22835;-80
2022/04/06 01:57:14;;;;;;;10.20;8.90;;;;;;;5.34;75.18;98957.47;84481;1336;22824;-78
2022/04/06 01:59:28;;;;;;;9.70;8.80;;;;;;;5.37;75.29;98960.65;84427;1336;22630;-77
2022/04/06 02:01:38;;;;;;;16.50;12.60;;;;;;;5.38;75.39;98957.67;84496;1336;22625;-78
2022/04/06 02:03:50;;;;;;;16.90;12.90;;;;;;;5.36;75.58;98959.10;84475;1335;22661;-78
2022/04/06 02:05:59;;;;;;;21.60;11.60;;;;;;;5.32;75.38;98957.02;84492;1335;25447;-76
2022/04/06 02:08:10;;;;;;;10.90;8.90;;;;;;;5.29;75.47;98960.25;84486;1333;22607;-77
2022/04/06 02:10:20;;;;;;;11.70;9.20;;;;;;;5.24;75.45;98965.13;84448;1334;23268;-76
2022/04/06 02:12:29;;;;;;;17.90;9.70;;;;;;;5.16;74.97;98975.64;84491;1335;22614;-77
2022/04/06 02:14:40;;;;;;;15.00;8.40;;;;;;;5.07;74.77;98986.17;84523;1335;25099;-78
2022/04/06 02:16:53;;;;;;;14.20;8.10;;;;;;;5.00;74.81;98989.89;84559;1335;23175;-78
2022/04/06 02:19:03;;;;;;;16.90;8.90;;;;;;;4.92;74.91;98992.08;84493;1336;22843;-77
2022/04/06 02:21:13;;;;;;;10.90;6.90;;;;;;;4.85;75.12;98996.32;84502;1335;24284;-79
2022/04/06 02:23:22;;;;;;;14.40;7.30;;;;;;;4.82;75.04;99005.92;84541;1333;25604;-77
2022/04/06 02:25:34;;;;;;;9.40;6.50;;;;;;;4.76;74.82;99001.48;84526;1333;22591;-79
2022/04/06 02:27:50;;;;;;;8.90;6.60;;;;;;;4.67;74.70;98993.67;84508;1331;24251;-81
2022/04/06 02:30:02;;;;;;;17.30;10.20;;;;;;;4.60;75.12;98986.53;84536;1333;22655;-80
2022/04/06 02:32:12;;;;;;;17.40;11.30;;;;;;;4.56;74.90;98986.66;84510;1335;26507;-79
2022/04/06 02:34:21;;;;;;;11.90;8.10;;;;;;;4.53;75.10;98987.64;84527;1335;24242;-78
2022/04/06 02:36:31;;;;;;;10.40;7.30;;;;;;;4.49;75.17;98991.07;84495;1334;23644;-78
2022/04/06 02:38:40;;;;;;;12.00;7.10;;;;;;;4.45;75.25;98992.77;84514;1333;23912;-78
2022/04/06 02:40:48;;;;;;;9.40;6.40;;;;;;;4.41;75.47;98996.69;84492;1335;22582;-77
2022/04/06 02:42:58;;;;;;;11.90;6.70;;;;;;;4.38;75.43;99005.42;84496;1335;25447;-77
2022/04/06 02:45:08;;;;;;;10.50;6.00;;;;;;;4.36;75.35;99007.38;84502;1335;22582;-79
2022/04/06 02:47:17;;;;;;;13.10;7.20;;;;;;;4.36;75.57;99001.70;84527;1335;22697;-79
2022/04/06 02:49:27;;;;;;;11.50;7.10;;;;;;;4.37;75.65;99003.20;84494;1335;22600;-79
2022/04/06 02:51:39;;;;;;;11.20;6.80;;;;;;;4.35;75.75;99003.80;84539;1335;22591;-80
2022/04/06 02:53:48;;;;;;;10.40;7.70;;;;;;;4.32;75.78;99002.20;84535;1335;23862;-80
2022/04/06 02:55:57;;;;;;;10.20;7.60;;;;;;;4.31;75.89;99002.03;84526;1333;22669;-77
2022/04/06 02:58:10;;;;;;;10.80;7.40;;;;;;;4.30;76.15;99007.95;84469;1334;23041;-77
2022/04/06 03:00:20;;;;;;;10.20;7.10;;;;;;;4.28;76.13;99013.19;84512;1335;23932;-78
2022/04/06 03:02:29;;;;;;;9.60;7.20;;;;;;;4.28;76.19;99016.14;84509;1335;23069;-79
2022/04/06 03:04:39;;;;;;;12.80;8.00;;;;;;;4.29;76.29;99016.45;84543;1334;22649;-80
2022/04/06 03:06:48;;;;;;;16.20;6.90;;;;;;;4.29;76.19;99020.27;84545;1334;22669;-78
2022/04/06 03:08:57;;;;;;;9.80;7.00;;;;;;;4.29;76.41;99025.42;84488;1333;24258;-77
2022/04/06 03:11:07;;;;;;;11.70;7.50;;;;;;;4.27;76.50;99032.73;84377;1335;242827;-77
2022/04/06 03:13:16;;;;;;;9.60;7.40;;;;;;;4.27;76.56;99027.20;84546;1330;25168;-77
2022/04/06 03:15:28;;;;;;;10.60;7.20;;;;;;;4.29;76.63;99031.48;84575;1333;22927;-79
2022/04/06 03:17:37;;;;;;;10.90;8.00;;;;;;;4.29;76.57;99036.48;84580;1327;22762;-78
2022/04/06 03:19:47;;;;;;;12.40;8.10;;;;;;;4.26;76.57;99036.73;84560;1334;24271;-79
2022/04/06 03:21:56;;;;;;;11.80;8.60;;;;;;;4.24;76.58;99045.61;84590;1334;22578;-79
2022/04/06 03:24:07;;;;;;;9.20;7.30;;;;;;;4.21;76.75;99045.53;84576;1331;22599;-78
2022/04/06 03:26:17;;;;;;;9.60;7.60;;;;;;;4.22;76.68;99042.05;84586;1334;22593;-77
2022/04/06 03:28:29;;;;;;;8.00;7.20;;;;;;;4.22;76.72;99036.70;84562;1331;22645;-78
2022/04/06 03:30:41;;;;;;;9.30;6.60;;;;;;;4.20;77.05;99043.16;84534;1330;22635;-76
2022/04/06 03:32:52;;;;;;;13.50;7.90;;;;;;;4.19;76.82;99048.89;84459;1329;24417;-77
2022/04/06 03:35:03;;;;;;;11.50;8.00;;;;;;;4.18;76.82;99052.02;84562;1327;22607;-77
2022/04/06 03:37:13;;;;;;;10.90;7.40;;;;;;;4.17;77.00;99047.42;84570;1333;22617;-77
2022/04/06 03:39:26;;;;;;;13.30;8.60;;;;;;;4.13;77.03;99045.79;84602;1335;25380;-77
2022/04/06 03:41:35;;;;;;;9.10;7.20;;;;;;;4.09;77.09;99051.95;84551;1334;25427;-77
2022/04/06 03:43:45;;;;;;;11.20;7.50;;;;;;;4.07;77.11;99054.27;84563;1333;23056;-77
2022/04/06 03:45:54;;;;;;;12.20;7.70;;;;;;;4.05;77.23;99061.94;84602;1334;22645;-78
2022/04/06 03:48:03;;;;;;;9.40;7.40;;;;;;;4.06;77.36;99067.09;84565;1335;22590;-77
2022/04/06 03:50:13;;;;;;;12.50;8.30;;;;;;;4.06;77.27;99066.89;84577;1333;22614;-76
2022/04/06 03:52:23;;;;;;;9.10;7.90;;;;;;;4.08;77.54;99065.81;84564;1327;22593;-76
2022/04/06 03:54:35;;;;;;;9.80;7.70;;;;;;;4.07;77.35;99068.59;84565;1335;22664;-77
2022/04/06 03:56:45;;;;;;;10.90;7.60;;;;;;;4.06;77.48;99067.61;84595;1334;24879;-77
2022/04/06 03:58:54;;;;;;;13.60;8.80;;;;;;;4.04;77.47;99066.45;84483;1333;22896;-77
2022/04/06 04:01:05;;;;;;;11.20;8.70;;;;;;;4.02;77.62;99075.48;84485;1335;23077;-77
2022/04/06 04:03:17;;;;;;;10.50;8.90;;;;;;;4.01;77.51;99085.89;84486;1332;24278;-76
2022/04/06 04:05:27;;;;;;;12.00;8.80;;;;;;;4.01;77.79;99089.02;84574;1334;25449;-76
2022/04/06 04:07:37;;;;;;;12.40;8.50;;;;;;;4.01;77.89;99088.99;84549;1328;22581;-77
2022/04/06 04:09:47;;;;;;;11.70;8.30;;;;;;;4.00;77.86;99092.30;84595;1332;22600;-77
2022/04/06 04:11:59;;;;;;;11.60;7.20;;;;;;;4.01;77.95;99094.85;84563;1330;24457;-75
2022/04/06 04:14:09;;;;;;;9.20;7.60;;;;;;;4.02;78.01;99093.27;84566;1334;22726;-77
2022/04/06 04:16:17;;;;;;;10.50;8.30;;;;;;;4.04;78.02;99093.73;84628;1332;25515;-76
2022/04/06 04:18:27;;;;;;;13.60;8.50;;;;;;;4.03;77.83;99094.61;84556;1335;22804;-76
2022/04/06 04:20:41;;;;;;;11.20;8.80;;;;;;;4.03;77.96;99099.60;84589;1335;23978;-76
2022/04/06 04:22:50;;;;;;;10.10;8.60;;;;;;;4.03;78.06;99104.46;84535;1332;22602;-76
2022/04/06 04:25:00;;;;;;;19.10;10.30;;;;;;;3.99;78.02;99105.62;84581;1330;22605;-76
2022/04/06 04:27:10;;;;;;;12.30;9.90;;;;;;;3.96;78.16;99105.38;84590;1332;23962;-76
2022/04/06 04:29:24;;;;;;;14.50;9.60;;;;;;;3.94;78.24;99105.80;84503;1334;24250;-75
2022/04/06 04:31:34;;;;;;;10.70;9.60;;;;;;;3.91;78.04;99101.21;84576;1332;22626;-79
2022/04/06 04:33:43;;;;;;;11.60;8.90;;;;;;;3.91;78.19;99100.02;84491;1332;23183;-78
2022/04/06 04:35:53;;;;;;;11.70;9.20;;;;;;;3.93;78.20;99105.80;84573;1332;24223;-79
2022/04/06 04:38:02;;;;;;;9.20;8.30;;;;;;;3.95;78.19;99107.48;84532;1334;22599;-78
2022/04/06 04:40:16;;;;;;;11.20;8.20;;;;;;;3.96;78.22;99102.61;84608;1331;23019;-76
2022/04/06 04:42:26;;;;;;;9.70;8.50;;;;;;;3.97;78.15;99104.66;84573;1333;25489;-76
2022/04/06 04:44:34;;;;;;;;;;;;;;;3.96;78.17;99106.58;84580;1334;22589;-77
2022/04/06 04:46:42;;;;;;;9.10;7.70;;;;;;;3.92;78.23;99106.02;84604;1334;22623;-76
2022/04/06 04:48:52;;;;;;;9.00;8.00;;;;;;;3.90;78.32;99103.66;84568;1331;22599;-79
2022/04/06 04:51:04;;;;;;;19.40;12.80;;;;;;;3.87;78.21;99104.77;84558;1333;22605;-76
2022/04/06 04:53:14;;;;;;;9.40;7.30;;;;;;;3.86;78.28;99113.25;84599;1334;24280;-76
2022/04/06 04:55:23;;;;;;;8.10;7.20;;;;;;;3.86;78.35;99123.09;84555;1334;22676;-77
2022/04/06 04:57:33;;;;;;;11.40;7.30;;;;;;;3.86;78.33;99126.88;84568;1334;22670;-76
2022/04/06 04:59:46;;;;;;;8.30;6.20;;;;;;;3.87;78.43;99126.19;84582;1333;22581;-76
2022/04/06 05:01:55;;;;;;;7.80;5.70;;;;;;;3.88;78.35;99128.73;84590;1332;25444;-76
2022/04/06 05:04:04;;;;;;;10.20;6.40;;;;;;;3.89;78.35;99128.86;84553;1332;22578;-77
2022/04/06 05:06:13;;;;;;;8.60;6.90;;;;;;;3.91;78.15;99135.21;84573;1335;24250;-76
2022/04/06 05:08:23;;;;;;;8.50;6.70;;;;;;;3.90;78.30;99136.77;84591;1333;22604;-77
2022/04/06 05:10:32;;;;;;;10.40;7.10;;;;;;;3.91;78.25;99136.94;84581;1334;22604;-76
2022/04/06 05:12:42;;;;;;;9.90;7.40;;;;;;;3.91;78.47;99141.59;84559;1333;26104;-76
2022/04/06 05:14:52;;;;;;;9.90;7.60;;;;;;;3.91;78.37;99144.01;84522;1331;22616;-75
2022/04/06 05:17:01;;;;;;;8.10;6.60;;;;;;;3.89;78.31;99140.08;84510;1331;22848;-76
2022/04/06 05:19:10;;;;;;;10.80;6.20;;;;;;;3.92;78.58;99136.19;84585;1330;22640;-76
2022/04/06 05:21:19;;;;;;;6.10;5.40;;;;;;;3.95;78.68;99138.54;84545;1332;22652;-75
2022/04/06 05:23:31;;;;;;;7.60;6.60;;;;;;;3.96;78.14;99145.73;84559;1328;22587;-76
2022/04/06 05:25:41;;;;;;;13.80;6.50;;;;;;;3.98;78.27;99147.07;84590;1333;24259;-75
2022/04/06 05:27:52;;;;;;;18.20;10.90;;;;;;;3.99;78.26;99148.77;84569;1333;22829;-76
2022/04/06 05:30:05;;;;;;;11.90;8.50;;;;;;;4.02;78.37;99157.29;84569;1332;24275;-75
2022/04/06 05:32:14;;;;;;;13.50;8.10;;;;;;;4.01;78.17;99159.39;84544;1333;22599;-76
2022/04/06 05:34:23;;;;;;;;;;;;;;;3.99;78.17;99167.23;84509;1332;22592;-75
2022/04/06 05:36:35;;;;;;;11.70;7.10;;;;;;;3.96;78.13;99167.32;84567;1332;22585;-76
2022/04/06 05:38:47;;;;;;;7.20;6.50;;;;;;;3.99;78.54;99169.98;84553;1331;24314;-76
2022/04/06 05:40:58;;;;;;;8.50;5.90;;;;;;;4.01;78.49;99169.76;84565;1332;22587;-77
2022/04/06 05:43:08;;;;;;;7.10;6.40;;;;;;;4.03;78.49;99171.04;84584;1333;23074;-77
2022/04/06 05:45:19;;;;;;;9.30;6.30;;;;;;;4.06;78.42;99171.67;84599;1330;22676;-78
2022/04/06 05:47:30;;;;;;;9.40;6.30;;;;;;;4.08;78.43;99177.29;84582;1330;22602;-78
2022/04/06 05:49:43;;;;;;;11.90;6.60;;;;;;;4.16;78.71;99172.92;84528;1334;23923;-77
2022/04/06 05:51:52;;;;;;;7.20;6.50;;;;;;;4.22;78.58;99179.98;84594;1324;22611;-75
2022/04/06 05:54:03;;;;;;;8.30;5.60;;;;;;;4.25;78.45;99177.30;84577;1324;22837;-77
2022/04/06 05:56:16;;;;;;;7.80;6.30;;;;;;;4.27;78.46;99183.24;84598;1330;22830;-75
2022/04/06 05:58:27;;;;;;;7.40;6.70;;;;;;;4.29;78.34;99184.93;84580;1334;22598;-75
2022/04/06 06:00:36;;;;;;;9.00;6.60;;;;;;;4.30;78.26;99183.17;84491;1327;22670;-75
2022/04/06 06:02:45;;;;;;;7.20;5.90;;;;;;;4.30;78.31;99180.42;84564;1332;22817;-76
2022/04/06 06:04:55;;;;;;;9.70;6.30;;;;;;;4.30;78.50;99180.91;84557;1331;24310;-76
2022/04/06 06:07:05;;;;;;;12.00;7.50;;;;;;;4.33;78.40;99183.23;84563;1328;22631;-75
2022/04/06 06:09:17;;;;;;;9.90;6.60;;;;;;;4.32;78.14;99193.29;84558;1328;22694;-76
2022/04/06 06:11:26;;;;;;;10.30;6.30;;;;;;;4.33;78.35;99201.89;84613;1333;22627;-76
2022/04/06 06:13:35;;;;;;;6.60;6.00;;;;;;;4.33;78.45;99202.39;84551;1332;22662;-76
2022/04/06 06:15:44;;;;;;;7.70;6.60;;;;;;;4.34;78.34;99205.15;83869;1330;1003157;-74
2022/04/06 06:17:54;;;;;;;10.00;7.00;;;;;;;4.33;78.67;99201.89;84531;1333;22706;-75
2022/04/06 06:20:09;;;;;;;15.30;10.80;;;;;;;4.33;78.78;99202.39;84561;1331;22617;-78
2022/04/06 06:22:19;;;;;;;42.60;28.80;;;;;;;4.36;78.85;99208.17;84567;1330;22600;-80
2022/04/06 06:24:33;;;;;;;13.30;10.30;;;;;;;4.38;78.72;99202.41;84485;1336;22609;-83
2022/04/06 06:26:43;;;;;;;11.00;7.70;;;;;;;4.44;79.04;99200.00;84593;1327;22602;-80
2022/04/06 06:28:54;;;;;;;12.10;6.80;;;;;;;4.50;78.89;99196.85;84479;1335;22607;-80
2022/04/06 06:31:02;;;;;;;7.70;7.00;;;;;;;4.57;78.97;99196.82;84608;1330;23925;-81
2022/04/06 06:33:13;;;;;;;8.60;6.90;;;;;;;4.63;79.05;99195.56;84567;1331;25426;-81
2022/04/06 06:35:23;;;;;;;10.50;6.60;;;;;;;4.71;78.65;99198.60;84481;1333;23915;-80
2022/04/06 06:37:33;;;;;;;8.10;7.00;;;;;;;4.75;78.83;99195.01;84577;1332;22614;-81
2022/04/06 06:39:42;;;;;;;9.70;6.70;;;;;;;4.81;78.77;99196.38;84577;1334;25435;-80
2022/04/06 06:41:52;;;;;;;7.30;6.60;;;;;;;4.84;78.67;99193.86;83877;1332;1003900;-77
2022/04/06 06:44:02;;;;;;;10.10;7.60;;;;;;;4.89;78.41;99196.64;84563;1333;22605;-76
2022/04/06 06:46:10;;;;;;;;;;;;;;;4.92;78.43;99193.73;84608;1333;24270;-80
2022/04/06 06:48:19;;;;;;;8.70;6.90;;;;;;;4.91;78.44;99201.05;84553;1331;23972;-76
2022/04/06 06:50:29;;;;;;;9.90;7.40;;;;;;;4.91;78.44;99200.69;84483;1330;22597;-79
2022/04/06 06:52:41;;;;;;;7.00;6.40;;;;;;;4.92;78.57;99197.54;84573;1332;22721;-78
2022/04/06 06:54:57;;;;;;;7.10;6.40;;;;;;;4.94;78.16;99199.55;84550;1333;22606;-78
2022/04/06 06:57:10;;;;;;;6.20;5.60;;;;;;;5.00;78.48;99196.77;84578;1332;22619;-75
2022/04/06 06:59:19;;;;;;;7.80;5.50;;;;;;;5.04;78.34;99192.65;84559;1328;22680;-75
2022/04/06 07:01:29;;;;;;;7.30;6.20;;;;;;;5.09;78.22;99192.30;84579;1330;23142;-76
2022/04/06 07:03:38;;;;;;;6.10;5.40;;;;;;;5.17;77.73;99194.64;84565;1332;22627;-76
2022/04/06 07:05:50;;;;;;;6.80;5.30;;;;;;;5.19;77.51;99190.08;84563;1332;22597;-76
2022/04/06 07:08:01;;;;;;;6.00;5.30;;;;;;;5.21;77.32;99190.16;84574;1332;22580;-79
2022/04/06 07:10:13;;;;;;;6.60;5.70;;;;;;;5.18;77.01;99193.20;84612;1327;22614;-76
2022/04/06 07:12:22;;;;;;;6.30;5.80;;;;;;;5.16;77.17;99194.30;84579;1333;22732;-77
2022/04/06 07:14:32;;;;;;;6.30;5.70;;;;;;;5.14;76.80;99198.85;84557;1331;25458;-77
2022/04/06 07:16:42;;;;;;;7.20;6.30;;;;;;;5.09;76.82;99195.92;84590;1331;24043;-76
2022/04/06 07:18:52;;;;;;;5.40;4.90;;;;;;;5.06;76.88;99192.59;84580;1327;22587;-76
2022/04/06 07:21:01;;;;;;;6.90;6.20;;;;;;;5.05;76.98;99192.95;84576;1323;22738;-77
2022/04/06 07:23:15;;;;;;;6.00;4.90;;;;;;;5.06;77.29;99195.68;84545;1332;22580;-79
2022/04/06 07:25:26;;;;;;;6.70;5.90;;;;;;;5.08;77.17;99196.83;84509;1332;22790;-80
2022/04/06 07:27:43;;;;;;;7.10;5.30;;;;;;;5.14;77.41;99196.95;84531;1333;25490;-80
2022/04/06 07:29:53;;;;;;;7.10;5.50;;;;;;;5.21;77.61;99201.39;84550;1327;22830;-79
2022/04/06 07:32:05;;;;;;;7.30;5.60;;;;;;;5.26;77.57;99197.23;84571;1333;22606;-80
2022/04/06 07:34:18;;;;;;;19.10;6.60;;;;;;;5.33;77.44;99197.16;84565;1331;22615;-81
2022/04/06 07:36:30;;;;;;;17.70;7.50;;;;;;;5.37;77.18;99196.86;84572;1327;24238;-80
2022/04/06 07:38:40;;;;;;;18.00;7.80;;;;;;;5.38;77.07;99196.48;83856;1326;1003011;-79
2022/04/06 07:40:50;;;;;;;15.40;5.80;;;;;;;5.42;77.02;99198.60;84577;1331;22620;-79
2022/04/06 07:43:00;;;;;;;14.70;6.50;;;;;;;5.43;76.79;99198.36;84548;1333;25321;-80
2022/04/06 07:45:13;;;;;;;13.30;5.80;;;;;;;5.45;76.57;99198.13;84539;1331;22608;-79
2022/04/06 07:47:31;;;;;;;13.00;5.80;;;;;;;5.44;76.40;99200.05;84495;1333;24161;-80
2022/04/06 07:49:44;;;;;;;12.60;5.40;;;;;;;5.45;76.67;99198.64;84600;1330;25285;-77
2022/04/06 07:52:07;;;;;;;10.00;5.50;;;;;;;5.49;76.37;99199.55;84527;1328;22732;-77
2022/04/06 07:54:18;;;;;;;13.10;5.90;;;;;;;5.50;76.20;99195.36;84549;1333;22830;-76
2022/04/06 07:56:28;;;;;;;10.70;6.40;;;;;;;5.54;76.52;99194.52;84579;1330;22682;-76
2022/04/06 07:58:37;;;;;;;14.70;7.60;;;;;;;5.59;76.53;99192.77;84579;1332;22606;-75
2022/04/06 08:00:46;;;;;;;23.50;10.90;;;;;;;5.65;76.24;99193.09;84506;1333;22838;-79
2022/04/06 08:02:55;;;;;;;13.30;9.80;;;;;;;5.72;76.75;99186.24;84561;1327;22751;-79
2022/04/06 08:05:06;;;;;;;26.00;12.50;;;;;;;5.76;76.30;99181.61;84552;1330;22736;-79
2022/04/06 08:07:15;;;;;;;22.30;13.30;;;;;;;5.81;76.47;99179.67;84464;1332;22822;-74
2022/04/06 08:09:27;;;;;;;20.70;12.40;;;;;;;5.86;76.43;99176.90;84490;1333;21949;-76
2022/04/06 08:11:36;;;;;;;23.10;12.90;;;;;;;5.90;76.26;99178.13;84576;1331;24323;-76
2022/04/06 08:13:45;;;;;;;21.00;12.50;;;;;;;5.95;75.89;99179.70;84539;1334;23135;-77
2022/04/06 08:15:57;;;;;;;21.70;12.10;;;;;;;5.93;75.58;99181.16;84500;1332;24011;-78
2022/04/06 08:18:11;;;;;;;24.00;13.80;;;;;;;5.91;75.65;99180.52;84504;1334;24260;-80
2022/04/06 08:20:23;;;;;;;24.80;14.80;;;;;;;5.91;75.72;99173.77;84536;1332;22684;-75
2022/04/06 08:22:32;;;;;;;16.10;10.90;;;;;;;5.85;75.63;99172.94;84551;1330;22603;-77
2022/04/06 08:24:42;;;;;;;22.30;10.00;;;;;;;5.81;75.61;99176.04;84520;1333;22649;-74
2022/04/06 08:26:52;;;;;;;;;;;;;;;5.78;75.68;99178.08;84596;1328;22574;-75
2022/04/06 08:29:05;;;;;;;18.60;11.30;;;;;;;5.70;76.07;99176.80;84562;1331;24293;-82
2022/04/06 08:31:15;;;;;;;23.00;13.50;;;;;;;5.67;75.86;99180.89;84586;1331;22599;-81
2022/04/06 08:33:25;;;;;;;15.60;11.40;;;;;;;5.67;76.05;99184.52;84440;1334;22628;-80
2022/04/06 08:35:34;;;;;;;;;;;;;;;5.68;76.21;99191.25;84595;1334;22590;-75
2022/04/06 08:37:43;;;;;;;16.10;10.00;;;;;;;5.66;76.20;99196.68;84544;1334;24348;-75
2022/04/06 08:39:52;;;;;;;18.50;12.50;;;;;;;5.71;76.43;99193.21;84557;1332;22603;-75
2022/04/06 08:42:02;;;;;;;13.90;10.10;;;;;;;5.74;76.09;99200.53;84576;1331;24320;-75
2022/04/06 08:44:16;;;;;;;19.00;12.00;;;;;;;5.72;75.82;99208.06;84548;1330;25441;-74
2022/04/06 08:46:26;;;;;;;11.60;9.30;;;;;;;5.72;76.35;99199.07;84501;1332;23986;-76
2022/04/06 08:48:35;;;;;;;11.10;9.00;;;;;;;5.73;76.33;99202.34;84556;1331;22594;-75
2022/04/06 08:50:45;;;;;;;9.70;8.80;;;;;;;5.69;76.15;99207.25;84562;1327;22650;-78
2022/04/06 08:52:54;;;;;;;10.80;9.00;;;;;;;5.71;76.27;99204.80;84488;1332;22768;-77
2022/04/06 08:55:03;;;;;;;11.20;10.10;;;;;;;5.74;76.20;99208.00;84561;1333;22590;-75
2022/04/06 08:57:12;;;;;;;11.30;9.70;;;;;;;5.73;76.65;99200.06;84560;1331;25372;-75
2022/04/06 08:59:22;;;;;;;19.50;13.50;;;;;;;5.67;76.55;99203.38;84550;1333;22591;-75
2022/04/06 09:01:33;;;;;;;10.80;9.00;;;;;;;5.70;76.59;99201.90;84611;1331;24302;-77
2022/04/06 09:03:46;;;;;;;10.80;9.40;;;;;;;5.74;76.58;99195.17;84560;1332;22590;-77
2022/04/06 09:06:06;;;;;;;11.20;10.10;;;;;;;5.77;76.61;99194.02;84506;1333;22647;-77
2022/04/06 09:08:15;;;;;;;12.90;11.20;;;;;;;5.80;76.66;99197.17;84550;1333;24027;-77
2022/04/06 09:10:38;;;;;;;15.50;11.60;;;;;;;5.84;76.44;99192.37;84535;1328;22757;-75
2022/04/06 09:12:47;;;;;;;15.00;11.40;;;;;;;5.87;76.54;99185.16;84561;1331;23483;-78
2022/04/06 09:15:10;;;;;;;12.90;11.60;;;;;;;5.89;76.80;99177.14;84536;1331;22597;-80
2022/04/06 09:17:24;;;;;;;13.50;11.30;;;;;;;5.94;76.86;99175.25;84563;1333;24262;-79
2022/04/06 09:19:34;;;;;;;12.70;10.70;;;;;;;5.94;76.65;99178.02;84586;1331;22612;-80
2022/04/06 09:21:46;;;;;;;13.40;11.20;;;;;;;5.91;76.68;99182.08;84474;1334;22636;-81
2022/04/06 09:23:57;;;;;;;13.30;11.10;;;;;;;5.96;76.79;99176.02;84563;1331;22627;-81
2022/04/06 09:26:11;;;;;;;12.30;10.90;;;;;;;6.04;76.82;99165.34;84572;1332;25343;-74
2022/04/06 09:28:21;;;;;;;19.70;14.10;;;;;;;6.08;76.69;99164.14;84494;1332;22612;-76
2022/04/06 09:30:30;;;;;;;13.50;12.20;;;;;;;6.13;76.89;99166.71;84551;1334;22622;-75
2022/04/06 09:32:39;;;;;;;12.60;11.30;;;;;;;6.16;77.12;99161.91;84569;1332;25497;-74
2022/04/06 09:34:51;;;;;;;12.90;11.60;;;;;;;6.17;76.58;99162.05;84550;1332;22738;-75
2022/04/06 09:37:01;;;;;;;14.40;11.40;;;;;;;6.15;76.58;99158.30;84550;1330;22598;-74
2022/04/06 09:39:14;;;;;;;14.30;11.60;;;;;;;6.14;76.71;99156.95;84552;1333;22685;-74
2022/04/06 09:41:24;;;;;;;12.10;10.80;;;;;;;6.14;76.62;99161.30;84522;1333;24222;-79
2022/04/06 09:43:35;;;;;;;12.50;11.20;;;;;;;6.14;76.84;99163.22;84588;1331;22856;-80
2022/04/06 09:48:17;;;;;;;25.00;16.00;;;;;;;6.09;76.79;99166.71;84584;1326;23052;-79
2022/04/06 09:50:27;;;;;;;25.40;18.10;;;;;;;6.10;77.01;99172.04;84466;1332;22613;-78
2022/04/06 09:52:39;;;;;;;22.00;15.20;;;;;;;6.09;77.05;99170.34;84573;1333;22611;-79
2022/04/06 09:54:48;;;;;;;14.60;12.70;;;;;;;6.07;77.11;99175.42;84568;1333;24329;-76
2022/04/06 09:56:57;;;;;;;16.40;13.40;;;;;;;6.07;77.04;99171.98;84559;1330;24153;-76
2022/04/06 09:59:07;;;;;;;12.30;11.10;;;;;;;6.09;77.40;99151.81;84577;1330;24269;-75
2022/04/06 10:01:16;;;;;;;13.30;11.90;;;;;;;6.14;77.43;99151.61;84576;1331;25397;-76
2022/04/06 10:03:25;;;;;;;17.40;12.90;;;;;;;6.17;77.62;99153.24;84540;1332;22607;-75
2022/04/06 10:05:34;;;;;;;14.70;10.80;;;;;;;6.21;77.64;99163.98;84551;1333;25481;-75
2022/04/06 10:07:44;;;;;;;11.90;10.20;;;;;;;6.24;77.34;99174.45;84559;1335;22585;-75
2022/04/06 10:09:56;;;;;;;11.80;10.60;;;;;;;6.24;77.47;99176.14;84507;1332;23917;-75
2022/04/06 10:12:11;;;;;;;14.60;13.00;;;;;;;6.29;77.89;99169.89;84547;1328;22601;-79
2022/04/06 10:14:23;;;;;;;50.10;40.50;;;;;;;6.35;77.68;99164.63;84562;1327;22679;-77
2022/04/06 10:16:36;;;;;;;12.10;10.80;;;;;;;6.45;77.75;99158.70;84566;1330;23764;-74
2022/04/06 10:18:48;;;;;;;13.40;10.90;;;;;;;6.55;77.75;99153.98;84543;1332;22825;-75
2022/04/06 10:21:02;;;;;;;11.70;10.60;;;;;;;6.61;77.93;99148.52;84550;1330;22664;-77
2022/04/06 10:23:20;;;;;;;13.80;9.90;;;;;;;6.67;77.60;99145.64;84542;1330;22584;-77